sensor_id;sensor_type;location;lat;lon;timestamp;P1;durP1;ratioP1;P2;durP2;ratioP2
7108;SDS011;29079;41.930;25.558;2023-02-15T00:01:45;35.80;;;18.83;;
7108;SDS011;29079;41.930;25.558;2023-02-15T00:04:20;35.30;;;17.90;;
7108;SDS011;29079;41.930;25.558;2023-02-15T00:06:56;33.95;;;17.55;;
7108;SDS011;29079;41.930;25.558;2023-02-15T00:09:30;29.80;;;17.77;;
7108;SDS011;29079;41.930;25.558;2023-02-15T00:12:05;35.70;;;16.98;;
7108;SDS011;29079;41.930;25.558;2023-02-15T00:14:39;29.80;;;16.40;;
7108;SDS011;29079;41.930;25.558;2023-02-15T00:17:13;32.78;;;17.95;;
7108;SDS011;29079;41.930;25.558;2023-02-15T00:19:47;32.65;;;16.98;;
7108;SDS011;29079;41.930;25.558;2023-02-15T00:22:22;27.60;;;15.15;;
7108;SDS011;29079;41.930;25.558;2023-02-15T00:24:55;28.58;;;16.00;;
7108;SDS011;29079;41.930;25.558;2023-02-15T00:27:28;29.35;;;15.57;;
7108;SDS011;29079;41.930;25.558;2023-02-15T00:30:02;27.33;;;14.70;;
7108;SDS011;29079;41.930;25.558;2023-02-15T00:32:35;29.00;;;15.82;;
7108;SDS011;29079;41.930;25.558;2023-02-15T00:35:09;26.58;;;15.02;;
7108;SDS011;29079;41.930;25.558;2023-02-15T00:37:44;29.02;;;15.88;;
7108;SDS011;29079;41.930;25.558;2023-02-15T00:40:17;32.63;;;16.38;;
7108;SDS011;29079;41.930;25.558;2023-02-15T00:42:51;28.65;;;16.23;;
7108;SDS011;29079;41.930;25.558;2023-02-15T00:45:24;30.02;;;15.70;;
7108;SDS011;29079;41.930;25.558;2023-02-15T00:47:57;29.90;;;17.13;;
7108;SDS011;29079;41.930;25.558;2023-02-15T00:50:30;37.15;;;17.08;;
7108;SDS011;29079;41.930;25.558;2023-02-15T00:53:05;36.65;;;16.23;;
7108;SDS011;29079;41.930;25.558;2023-02-15T00:55:39;31.02;;;16.15;;
7108;SDS011;29079;41.930;25.558;2023-02-15T00:58:12;30.33;;;16.65;;
7108;SDS011;29079;41.930;25.558;2023-02-15T01:00:46;37.33;;;16.90;;
7108;SDS011;29079;41.930;25.558;2023-02-15T01:03:20;32.42;;;17.30;;
7108;SDS011;29079;41.930;25.558;2023-02-15T01:05:54;36.42;;;18.10;;
7108;SDS011;29079;41.930;25.558;2023-02-15T01:08:29;31.02;;;18.42;;
7108;SDS011;29079;41.930;25.558;2023-02-15T01:11:03;37.42;;;18.33;;
7108;SDS011;29079;41.930;25.558;2023-02-15T01:13:38;36.83;;;18.17;;
7108;SDS011;29079;41.930;25.558;2023-02-15T01:16:12;33.35;;;17.73;;
7108;SDS011;29079;41.930;25.558;2023-02-15T01:18:46;33.13;;;16.67;;
7108;SDS011;29079;41.930;25.558;2023-02-15T01:21:20;41.47;;;19.52;;
7108;SDS011;29079;41.930;25.558;2023-02-15T01:23:56;35.03;;;18.45;;
7108;SDS011;29079;41.930;25.558;2023-02-15T01:26:30;34.63;;;18.48;;
7108;SDS011;29079;41.930;25.558;2023-02-15T01:29:04;37.10;;;19.60;;
7108;SDS011;29079;41.930;25.558;2023-02-15T01:31:37;41.53;;;19.05;;
7108;SDS011;29079;41.930;25.558;2023-02-15T01:36:44;39.72;;;19.13;;
7108;SDS011;29079;41.930;25.558;2023-02-15T01:39:19;41.28;;;20.20;;
7108;SDS011;29079;41.930;25.558;2023-02-15T01:41:52;37.42;;;19.73;;
7108;SDS011;29079;41.930;25.558;2023-02-15T01:47:32;38.55;;;19.17;;
7108;SDS011;29079;41.930;25.558;2023-02-15T01:50:10;33.38;;;18.52;;
7108;SDS011;29079;41.930;25.558;2023-02-15T01:52:48;41.80;;;18.92;;
7108;SDS011;29079;41.930;25.558;2023-02-15T01:55:26;46.42;;;20.35;;
7108;SDS011;29079;41.930;25.558;2023-02-15T01:58:03;35.63;;;18.60;;
7108;SDS011;29079;41.930;25.558;2023-02-15T02:00:37;35.70;;;19.63;;
7108;SDS011;29079;41.930;25.558;2023-02-15T02:03:10;35.58;;;20.77;;
7108;SDS011;29079;41.930;25.558;2023-02-15T02:08:17;33.15;;;17.02;;
7108;SDS011;29079;41.930;25.558;2023-02-15T02:10:52;34.67;;;17.13;;
7108;SDS011;29079;41.930;25.558;2023-02-15T02:13:26;32.53;;;15.43;;
7108;SDS011;29079;41.930;25.558;2023-02-15T02:16:00;31.17;;;16.17;;
7108;SDS011;29079;41.930;25.558;2023-02-15T02:18:43;36.67;;;17.23;;
7108;SDS011;29079;41.930;25.558;2023-02-15T02:24:44;27.55;;;15.93;;
7108;SDS011;29079;41.930;25.558;2023-02-15T02:27:46;31.40;;;17.52;;
7108;SDS011;29079;41.930;25.558;2023-02-15T02:33:36;34.83;;;16.85;;
7108;SDS011;29079;41.930;25.558;2023-02-15T02:36:21;33.40;;;17.63;;
7108;SDS011;29079;41.930;25.558;2023-02-15T02:39:07;38.33;;;19.63;;
7108;SDS011;29079;41.930;25.558;2023-02-15T02:41:49;38.58;;;18.77;;
7108;SDS011;29079;41.930;25.558;2023-02-15T02:44:29;36.05;;;16.88;;
7108;SDS011;29079;41.930;25.558;2023-02-15T02:47:08;37.78;;;19.13;;
7108;SDS011;29079;41.930;25.558;2023-02-15T02:49:46;38.90;;;20.60;;
7108;SDS011;29079;41.930;25.558;2023-02-15T02:52:39;33.10;;;17.85;;
7108;SDS011;29079;41.930;25.558;2023-02-15T02:55:15;37.22;;;19.05;;
7108;SDS011;29079;41.930;25.558;2023-02-15T02:57:53;34.42;;;18.50;;
7108;SDS011;29079;41.930;25.558;2023-02-15T03:00:31;34.67;;;16.90;;
7108;SDS011;29079;41.930;25.558;2023-02-15T03:03:09;37.80;;;19.20;;
7108;SDS011;29079;41.930;25.558;2023-02-15T03:05:48;40.88;;;21.17;;
7108;SDS011;29079;41.930;25.558;2023-02-15T03:08:27;42.53;;;19.05;;
7108;SDS011;29079;41.930;25.558;2023-02-15T03:11:06;38.67;;;19.65;;
7108;SDS011;29079;41.930;25.558;2023-02-15T03:13:40;41.03;;;20.15;;
7108;SDS011;29079;41.930;25.558;2023-02-15T03:16:15;33.08;;;18.92;;
7108;SDS011;29079;41.930;25.558;2023-02-15T03:21:36;37.75;;;18.27;;
7108;SDS011;29079;41.930;25.558;2023-02-15T03:24:16;37.05;;;18.77;;
7108;SDS011;29079;41.930;25.558;2023-02-15T03:26:52;39.28;;;20.25;;
7108;SDS011;29079;41.930;25.558;2023-02-15T03:29:28;45.45;;;21.38;;
7108;SDS011;29079;41.930;25.558;2023-02-15T03:32:05;43.00;;;20.63;;
7108;SDS011;29079;41.930;25.558;2023-02-15T03:34:43;43.25;;;21.98;;
7108;SDS011;29079;41.930;25.558;2023-02-15T03:39:56;39.58;;;19.08;;
7108;SDS011;29079;41.930;25.558;2023-02-15T03:42:58;46.45;;;22.00;;
7108;SDS011;29079;41.930;25.558;2023-02-15T03:45:37;44.88;;;19.85;;
7108;SDS011;29079;41.930;25.558;2023-02-15T03:48:27;44.17;;;21.13;;
7108;SDS011;29079;41.930;25.558;2023-02-15T03:51:05;39.63;;;20.20;;
7108;SDS011;29079;41.930;25.558;2023-02-15T03:56:34;39.35;;;21.63;;
7108;SDS011;29079;41.930;25.558;2023-02-15T03:59:09;41.28;;;19.90;;
7108;SDS011;29079;41.930;25.558;2023-02-15T04:02:03;37.53;;;19.73;;
7108;SDS011;29079;41.930;25.558;2023-02-15T04:04:47;45.22;;;22.30;;
7108;SDS011;29079;41.930;25.558;2023-02-15T04:07:21;36.63;;;20.40;;
7108;SDS011;29079;41.930;25.558;2023-02-15T04:09:56;39.85;;;20.85;;
7108;SDS011;29079;41.930;25.558;2023-02-15T04:12:48;45.05;;;20.05;;
7108;SDS011;29079;41.930;25.558;2023-02-15T04:15:22;42.47;;;21.35;;
7108;SDS011;29079;41.930;25.558;2023-02-15T04:18:13;46.33;;;23.23;;
7108;SDS011;29079;41.930;25.558;2023-02-15T04:20:47;38.67;;;20.20;;
7108;SDS011;29079;41.930;25.558;2023-02-15T04:23:38;45.05;;;22.92;;
7108;SDS011;29079;41.930;25.558;2023-02-15T04:26:30;43.95;;;22.27;;
7108;SDS011;29079;41.930;25.558;2023-02-15T04:29:03;48.95;;;22.73;;
7108;SDS011;29079;41.930;25.558;2023-02-15T04:31:37;43.22;;;21.40;;
7108;SDS011;29079;41.930;25.558;2023-02-15T04:34:10;47.45;;;24.50;;
7108;SDS011;29079;41.930;25.558;2023-02-15T04:36:43;41.33;;;20.92;;
7108;SDS011;29079;41.930;25.558;2023-02-15T04:39:17;47.42;;;23.42;;
7108;SDS011;29079;41.930;25.558;2023-02-15T04:41:53;46.90;;;21.77;;
7108;SDS011;29079;41.930;25.558;2023-02-15T04:44:26;51.67;;;23.50;;
7108;SDS011;29079;41.930;25.558;2023-02-15T04:46:59;44.08;;;21.88;;
7108;SDS011;29079;41.930;25.558;2023-02-15T04:49:33;46.33;;;23.00;;
7108;SDS011;29079;41.930;25.558;2023-02-15T04:52:06;43.17;;;22.30;;
7108;SDS011;29079;41.930;25.558;2023-02-15T04:54:39;45.65;;;23.50;;
7108;SDS011;29079;41.930;25.558;2023-02-15T04:57:14;41.03;;;21.38;;
7108;SDS011;29079;41.930;25.558;2023-02-15T04:59:47;40.00;;;21.33;;
7108;SDS011;29079;41.930;25.558;2023-02-15T05:02:21;45.45;;;21.88;;
7108;SDS011;29079;41.930;25.558;2023-02-15T05:07:28;44.53;;;22.50;;
7108;SDS011;29079;41.930;25.558;2023-02-15T05:10:02;48.97;;;24.25;;
7108;SDS011;29079;41.930;25.558;2023-02-15T05:12:37;66.45;;;29.83;;
7108;SDS011;29079;41.930;25.558;2023-02-15T05:15:11;68.85;;;32.25;;
7108;SDS011;29079;41.930;25.558;2023-02-15T05:17:45;87.38;;;36.33;;
7108;SDS011;29079;41.930;25.558;2023-02-15T05:20:18;78.30;;;35.47;;
7108;SDS011;29079;41.930;25.558;2023-02-15T05:22:52;67.15;;;31.83;;
7108;SDS011;29079;41.930;25.558;2023-02-15T05:25:26;65.35;;;32.88;;
7108;SDS011;29079;41.930;25.558;2023-02-15T05:28:18;66.50;;;29.58;;
7108;SDS011;29079;41.930;25.558;2023-02-15T05:30:59;63.03;;;32.15;;
7108;SDS011;29079;41.930;25.558;2023-02-15T05:33:38;56.83;;;27.23;;
7108;SDS011;29079;41.930;25.558;2023-02-15T05:36:12;64.97;;;34.15;;
7108;SDS011;29079;41.930;25.558;2023-02-15T05:38:51;59.88;;;30.38;;
7108;SDS011;29079;41.930;25.558;2023-02-15T05:41:24;64.38;;;31.90;;
7108;SDS011;29079;41.930;25.558;2023-02-15T05:43:59;62.15;;;28.15;;
7108;SDS011;29079;41.930;25.558;2023-02-15T05:46:33;52.30;;;27.05;;
7108;SDS011;29079;41.930;25.558;2023-02-15T05:49:06;183.38;;;89.72;;
7108;SDS011;29079;41.930;25.558;2023-02-15T05:51:39;589.30;;;315.63;;
7108;SDS011;29079;41.930;25.558;2023-02-15T05:54:13;497.05;;;260.40;;
7108;SDS011;29079;41.930;25.558;2023-02-15T05:56:47;109.28;;;55.15;;
7108;SDS011;29079;41.930;25.558;2023-02-15T05:59:21;64.05;;;32.20;;
7108;SDS011;29079;41.930;25.558;2023-02-15T06:01:55;60.70;;;30.50;;
7108;SDS011;29079;41.930;25.558;2023-02-15T06:04:28;56.58;;;27.70;;
7108;SDS011;29079;41.930;25.558;2023-02-15T06:09:35;48.17;;;24.50;;
7108;SDS011;29079;41.930;25.558;2023-02-15T06:12:08;58.20;;;25.25;;
7108;SDS011;29079;41.930;25.558;2023-02-15T06:14:43;59.58;;;26.40;;
7108;SDS011;29079;41.930;25.558;2023-02-15T06:17:17;67.88;;;27.40;;
7108;SDS011;29079;41.930;25.558;2023-02-15T06:19:50;60.85;;;28.77;;
7108;SDS011;29079;41.930;25.558;2023-02-15T06:22:23;53.17;;;28.75;;
7108;SDS011;29079;41.930;25.558;2023-02-15T06:24:56;60.42;;;28.45;;
7108;SDS011;29079;41.930;25.558;2023-02-15T06:27:30;63.30;;;27.20;;
7108;SDS011;29079;41.930;25.558;2023-02-15T06:30:05;66.07;;;27.95;;
7108;SDS011;29079;41.930;25.558;2023-02-15T06:32:40;59.70;;;27.80;;
7108;SDS011;29079;41.930;25.558;2023-02-15T06:35:13;58.83;;;27.60;;
7108;SDS011;29079;41.930;25.558;2023-02-15T06:37:46;52.63;;;24.95;;
7108;SDS011;29079;41.930;25.558;2023-02-15T06:40:19;87.53;;;36.95;;
7108;SDS011;29079;41.930;25.558;2023-02-15T06:42:53;77.95;;;34.13;;
7108;SDS011;29079;41.930;25.558;2023-02-15T06:45:28;66.72;;;30.45;;
7108;SDS011;29079;41.930;25.558;2023-02-15T06:48:01;62.13;;;30.15;;
7108;SDS011;29079;41.930;25.558;2023-02-15T06:50:34;73.97;;;34.63;;
7108;SDS011;29079;41.930;25.558;2023-02-15T06:53:08;76.80;;;34.83;;
7108;SDS011;29079;41.930;25.558;2023-02-15T06:55:41;88.72;;;39.28;;
7108;SDS011;29079;41.930;25.558;2023-02-15T06:58:14;71.22;;;33.72;;
7108;SDS011;29079;41.930;25.558;2023-02-15T07:00:49;107.60;;;41.22;;
7108;SDS011;29079;41.930;25.558;2023-02-15T07:03:24;67.50;;;30.40;;
7108;SDS011;29079;41.930;25.558;2023-02-15T07:05:58;87.28;;;35.35;;
7108;SDS011;29079;41.930;25.558;2023-02-15T07:08:34;93.00;;;39.72;;
7108;SDS011;29079;41.930;25.558;2023-02-15T07:11:08;73.00;;;33.17;;
7108;SDS011;29079;41.930;25.558;2023-02-15T07:14:00;83.20;;;37.22;;
7108;SDS011;29079;41.930;25.558;2023-02-15T07:16:35;104.45;;;39.25;;
7108;SDS011;29079;41.930;25.558;2023-02-15T07:19:09;88.18;;;32.72;;
7108;SDS011;29079;41.930;25.558;2023-02-15T07:21:42;114.43;;;41.38;;
7108;SDS011;29079;41.930;25.558;2023-02-15T07:24:17;157.90;;;52.58;;
7108;SDS011;29079;41.930;25.558;2023-02-15T07:26:50;93.18;;;35.70;;
7108;SDS011;29079;41.930;25.558;2023-02-15T07:29:24;85.35;;;33.10;;
7108;SDS011;29079;41.930;25.558;2023-02-15T07:31:59;78.72;;;35.58;;
7108;SDS011;29079;41.930;25.558;2023-02-15T07:34:33;78.43;;;35.60;;
7108;SDS011;29079;41.930;25.558;2023-02-15T07:37:06;74.15;;;29.58;;
7108;SDS011;29079;41.930;25.558;2023-02-15T07:39:39;79.70;;;34.13;;
7108;SDS011;29079;41.930;25.558;2023-02-15T07:42:13;85.30;;;34.20;;
7108;SDS011;29079;41.930;25.558;2023-02-15T07:44:47;74.80;;;31.10;;
7108;SDS011;29079;41.930;25.558;2023-02-15T07:47:22;90.10;;;34.67;;
7108;SDS011;29079;41.930;25.558;2023-02-15T07:49:55;92.95;;;34.80;;
7108;SDS011;29079;41.930;25.558;2023-02-15T07:52:28;112.68;;;39.03;;
7108;SDS011;29079;41.930;25.558;2023-02-15T07:55:01;78.03;;;32.15;;
7108;SDS011;29079;41.930;25.558;2023-02-15T08:00:09;64.70;;;28.73;;
7108;SDS011;29079;41.930;25.558;2023-02-15T08:02:48;69.55;;;31.92;;
7108;SDS011;29079;41.930;25.558;2023-02-15T08:05:43;156.52;;;65.78;;
7108;SDS011;29079;41.930;25.558;2023-02-15T08:08:17;298.02;;;133.65;;
7108;SDS011;29079;41.930;25.558;2023-02-15T08:11:04;349.70;;;159.98;;
7108;SDS011;29079;41.930;25.558;2023-02-15T08:13:56;164.35;;;68.47;;
7108;SDS011;29079;41.930;25.558;2023-02-15T08:16:33;81.47;;;36.10;;
7108;SDS011;29079;41.930;25.558;2023-02-15T08:19:09;89.22;;;36.03;;
7108;SDS011;29079;41.930;25.558;2023-02-15T08:21:45;113.35;;;40.13;;
7108;SDS011;29079;41.930;25.558;2023-02-15T08:24:20;71.63;;;29.70;;
7108;SDS011;29079;41.930;25.558;2023-02-15T08:26:55;68.10;;;28.38;;
7108;SDS011;29079;41.930;25.558;2023-02-15T08:29:29;87.53;;;33.85;;
7108;SDS011;29079;41.930;25.558;2023-02-15T08:32:04;66.57;;;29.40;;
7108;SDS011;29079;41.930;25.558;2023-02-15T08:34:42;81.07;;;31.98;;
7108;SDS011;29079;41.930;25.558;2023-02-15T08:37:15;49.15;;;23.48;;
7108;SDS011;29079;41.930;25.558;2023-02-15T08:39:49;53.88;;;25.17;;
7108;SDS011;29079;41.930;25.558;2023-02-15T08:42:25;51.38;;;25.85;;
7108;SDS011;29079;41.930;25.558;2023-02-15T08:44:59;218.90;;;106.93;;
7108;SDS011;29079;41.930;25.558;2023-02-15T08:47:32;101.03;;;45.47;;
7108;SDS011;29079;41.930;25.558;2023-02-15T08:50:07;74.35;;;34.97;;
7108;SDS011;29079;41.930;25.558;2023-02-15T08:52:41;58.80;;;27.83;;
7108;SDS011;29079;41.930;25.558;2023-02-15T08:55:14;57.97;;;30.45;;
7108;SDS011;29079;41.930;25.558;2023-02-15T08:57:48;45.95;;;24.42;;
7108;SDS011;29079;41.930;25.558;2023-02-15T09:00:21;49.35;;;22.77;;
7108;SDS011;29079;41.930;25.558;2023-02-15T09:02:55;41.08;;;22.33;;
7108;SDS011;29079;41.930;25.558;2023-02-15T09:05:30;49.60;;;24.63;;
7108;SDS011;29079;41.930;25.558;2023-02-15T09:08:04;45.53;;;23.10;;
7108;SDS011;29079;41.930;25.558;2023-02-15T09:10:37;42.67;;;22.38;;
7108;SDS011;29079;41.930;25.558;2023-02-15T09:13:11;40.83;;;22.05;;
7108;SDS011;29079;41.930;25.558;2023-02-15T09:15:45;37.20;;;20.77;;
7108;SDS011;29079;41.930;25.558;2023-02-15T09:18:19;41.58;;;19.55;;
7108;SDS011;29079;41.930;25.558;2023-02-15T09:20:53;35.78;;;19.45;;
7108;SDS011;29079;41.930;25.558;2023-02-15T09:23:27;39.00;;;19.23;;
7108;SDS011;29079;41.930;25.558;2023-02-15T09:26:04;36.58;;;18.45;;
7108;SDS011;29079;41.930;25.558;2023-02-15T09:28:39;30.23;;;17.45;;
7108;SDS011;29079;41.930;25.558;2023-02-15T09:31:14;28.15;;;14.85;;
7108;SDS011;29079;41.930;25.558;2023-02-15T09:33:49;32.33;;;16.83;;
7108;SDS011;29079;41.930;25.558;2023-02-15T09:36:25;31.00;;;15.98;;
7108;SDS011;29079;41.930;25.558;2023-02-15T09:39:01;38.05;;;19.52;;
7108;SDS011;29079;41.930;25.558;2023-02-15T09:41:48;31.70;;;16.40;;
7108;SDS011;29079;41.930;25.558;2023-02-15T09:44:37;35.00;;;19.48;;
7108;SDS011;29079;41.930;25.558;2023-02-15T09:47:28;34.40;;;19.00;;
7108;SDS011;29079;41.930;25.558;2023-02-15T09:50:15;37.15;;;18.00;;
7108;SDS011;29079;41.930;25.558;2023-02-15T09:53:00;28.77;;;15.13;;
7108;SDS011;29079;41.930;25.558;2023-02-15T09:55:48;30.40;;;16.27;;
7108;SDS011;29079;41.930;25.558;2023-02-15T09:58:29;33.63;;;17.80;;
7108;SDS011;29079;41.930;25.558;2023-02-15T10:01:16;32.33;;;17.10;;
7108;SDS011;29079;41.930;25.558;2023-02-15T10:04:03;36.45;;;18.35;;
7108;SDS011;29079;41.930;25.558;2023-02-15T10:06:48;37.65;;;17.70;;
7108;SDS011;29079;41.930;25.558;2023-02-15T10:12:44;30.38;;;16.50;;
7108;SDS011;29079;41.930;25.558;2023-02-15T10:15:37;33.25;;;17.02;;
7108;SDS011;29079;41.930;25.558;2023-02-15T10:18:29;28.60;;;16.92;;
7108;SDS011;29079;41.930;25.558;2023-02-15T10:21:15;29.25;;;15.82;;
7108;SDS011;29079;41.930;25.558;2023-02-15T10:27:20;30.42;;;17.83;;
7108;SDS011;29079;41.930;25.558;2023-02-15T10:29:57;33.20;;;17.08;;
7108;SDS011;29079;41.930;25.558;2023-02-15T10:32:41;43.72;;;19.02;;
7108;SDS011;29079;41.930;25.558;2023-02-15T10:35:24;35.55;;;17.77;;
7108;SDS011;29079;41.930;25.558;2023-02-15T10:38:08;29.90;;;17.35;;
7108;SDS011;29079;41.930;25.558;2023-02-15T10:40:53;32.08;;;17.05;;
7108;SDS011;29079;41.930;25.558;2023-02-15T10:46:51;33.95;;;16.17;;
7108;SDS011;29079;41.930;25.558;2023-02-15T10:49:53;30.98;;;18.15;;
7108;SDS011;29079;41.930;25.558;2023-02-15T10:52:53;33.17;;;15.63;;
7108;SDS011;29079;41.930;25.558;2023-02-15T10:55:40;25.85;;;16.00;;
7108;SDS011;29079;41.930;25.558;2023-02-15T10:58:24;33.33;;;18.38;;
7108;SDS011;29079;41.930;25.558;2023-02-15T11:01:10;34.58;;;17.23;;
7108;SDS011;29079;41.930;25.558;2023-02-15T11:06:38;32.05;;;17.85;;
7108;SDS011;29079;41.930;25.558;2023-02-15T11:09:20;33.17;;;18.27;;
7108;SDS011;29079;41.930;25.558;2023-02-15T11:11:57;29.17;;;18.27;;
7108;SDS011;29079;41.930;25.558;2023-02-15T11:14:34;29.48;;;16.60;;
7108;SDS011;29079;41.930;25.558;2023-02-15T11:17:14;29.60;;;16.30;;
7108;SDS011;29079;41.930;25.558;2023-02-15T11:19:58;31.38;;;15.82;;
7108;SDS011;29079;41.930;25.558;2023-02-15T11:25:14;31.63;;;19.67;;
7108;SDS011;29079;41.930;25.558;2023-02-15T11:27:51;38.25;;;18.30;;
7108;SDS011;29079;41.930;25.558;2023-02-15T11:30:27;31.48;;;16.40;;
7108;SDS011;29079;41.930;25.558;2023-02-15T11:33:15;32.33;;;19.33;;
7108;SDS011;29079;41.930;25.558;2023-02-15T11:35:55;35.15;;;17.63;;
7108;SDS011;29079;41.930;25.558;2023-02-15T11:38:33;30.67;;;17.15;;
7108;SDS011;29079;41.930;25.558;2023-02-15T11:41:09;34.15;;;17.08;;
7108;SDS011;29079;41.930;25.558;2023-02-15T11:43:46;30.10;;;17.25;;
7108;SDS011;29079;41.930;25.558;2023-02-15T11:46:24;35.85;;;18.13;;
7108;SDS011;29079;41.930;25.558;2023-02-15T11:48:59;36.05;;;17.25;;
7108;SDS011;29079;41.930;25.558;2023-02-15T11:51:34;35.10;;;17.63;;
7108;SDS011;29079;41.930;25.558;2023-02-15T11:54:09;33.60;;;17.63;;
7108;SDS011;29079;41.930;25.558;2023-02-15T11:56:42;29.60;;;16.42;;
7108;SDS011;29079;41.930;25.558;2023-02-15T11:59:18;32.63;;;16.80;;
7108;SDS011;29079;41.930;25.558;2023-02-15T12:01:57;29.02;;;17.35;;
7108;SDS011;29079;41.930;25.558;2023-02-15T12:04:34;31.40;;;17.23;;
7108;SDS011;29079;41.930;25.558;2023-02-15T12:07:17;32.97;;;17.50;;
7108;SDS011;29079;41.930;25.558;2023-02-15T12:10:00;34.35;;;20.50;;
7108;SDS011;29079;41.930;25.558;2023-02-15T12:12:39;30.23;;;17.65;;
7108;SDS011;29079;41.930;25.558;2023-02-15T12:15:13;30.02;;;16.88;;
7108;SDS011;29079;41.930;25.558;2023-02-15T12:17:48;36.83;;;18.33;;
7108;SDS011;29079;41.930;25.558;2023-02-15T12:20:28;28.42;;;16.55;;
7108;SDS011;29079;41.930;25.558;2023-02-15T12:23:03;37.63;;;18.67;;
7108;SDS011;29079;41.930;25.558;2023-02-15T12:25:49;34.90;;;18.85;;
7108;SDS011;29079;41.930;25.558;2023-02-15T12:28:29;33.08;;;17.35;;
7108;SDS011;29079;41.930;25.558;2023-02-15T12:31:07;31.33;;;17.85;;
7108;SDS011;29079;41.930;25.558;2023-02-15T12:33:50;33.65;;;19.67;;
7108;SDS011;29079;41.930;25.558;2023-02-15T12:36:29;33.55;;;18.80;;
7108;SDS011;29079;41.930;25.558;2023-02-15T12:39:15;37.95;;;18.73;;
7108;SDS011;29079;41.930;25.558;2023-02-15T12:42:02;36.88;;;19.70;;
7108;SDS011;29079;41.930;25.558;2023-02-15T12:44:38;32.42;;;17.38;;
7108;SDS011;29079;41.930;25.558;2023-02-15T12:47:17;36.30;;;19.40;;
7108;SDS011;29079;41.930;25.558;2023-02-15T12:50:05;37.63;;;20.92;;
7108;SDS011;29079;41.930;25.558;2023-02-15T12:52:50;33.45;;;19.08;;
7108;SDS011;29079;41.930;25.558;2023-02-15T12:55:38;35.15;;;19.38;;
7108;SDS011;29079;41.930;25.558;2023-02-15T12:58:22;40.10;;;20.33;;
7108;SDS011;29079;41.930;25.558;2023-02-15T13:01:10;39.53;;;19.83;;
7108;SDS011;29079;41.930;25.558;2023-02-15T13:03:54;34.65;;;17.90;;
7108;SDS011;29079;41.930;25.558;2023-02-15T13:06:31;34.85;;;18.88;;
7108;SDS011;29079;41.930;25.558;2023-02-15T13:09:11;32.42;;;17.98;;
7108;SDS011;29079;41.930;25.558;2023-02-15T13:11:51;39.28;;;19.40;;
7108;SDS011;29079;41.930;25.558;2023-02-15T13:14:28;33.47;;;18.27;;
7108;SDS011;29079;41.930;25.558;2023-02-15T13:17:04;34.25;;;19.45;;
7108;SDS011;29079;41.930;25.558;2023-02-15T13:19:40;31.38;;;16.92;;
7108;SDS011;29079;41.930;25.558;2023-02-15T13:22:18;33.47;;;18.45;;
7108;SDS011;29079;41.930;25.558;2023-02-15T13:24:57;37.60;;;19.40;;
7108;SDS011;29079;41.930;25.558;2023-02-15T13:27:37;34.47;;;18.25;;
7108;SDS011;29079;41.930;25.558;2023-02-15T13:30:23;37.22;;;20.95;;
7108;SDS011;29079;41.930;25.558;2023-02-15T13:32:59;35.00;;;18.63;;
7108;SDS011;29079;41.930;25.558;2023-02-15T13:35:38;40.30;;;20.60;;
7108;SDS011;29079;41.930;25.558;2023-02-15T13:38:30;39.60;;;18.48;;
7108;SDS011;29079;41.930;25.558;2023-02-15T13:41:18;36.20;;;19.00;;
7108;SDS011;29079;41.930;25.558;2023-02-15T13:43:58;35.78;;;19.05;;
7108;SDS011;29079;41.930;25.558;2023-02-15T13:46:51;29.80;;;16.40;;
7108;SDS011;29079;41.930;25.558;2023-02-15T13:49:39;34.33;;;19.27;;
7108;SDS011;29079;41.930;25.558;2023-02-15T13:52:22;28.33;;;16.58;;
7108;SDS011;29079;41.930;25.558;2023-02-15T13:55:06;34.30;;;17.40;;
7108;SDS011;29079;41.930;25.558;2023-02-15T14:09:27;31.13;;;16.23;;
7108;SDS011;29079;41.930;25.558;2023-02-15T14:12:20;31.25;;;16.27;;
7108;SDS011;29079;41.930;25.558;2023-02-15T14:15:09;30.77;;;16.88;;
7108;SDS011;29079;41.930;25.558;2023-02-15T14:17:55;32.97;;;16.30;;
7108;SDS011;29079;41.930;25.558;2023-02-15T14:20:41;29.63;;;15.82;;
7108;SDS011;29079;41.930;25.558;2023-02-15T14:23:25;32.20;;;16.55;;
7108;SDS011;29079;41.930;25.558;2023-02-15T14:26:10;32.13;;;17.27;;
7108;SDS011;29079;41.930;25.558;2023-02-15T14:28:54;33.47;;;18.95;;
7108;SDS011;29079;41.930;25.558;2023-02-15T14:31:34;33.17;;;18.75;;
7108;SDS011;29079;41.930;25.558;2023-02-15T14:34:18;37.65;;;19.38;;
7108;SDS011;29079;41.930;25.558;2023-02-15T14:36:54;32.33;;;16.75;;
7108;SDS011;29079;41.930;25.558;2023-02-15T14:39:31;30.55;;;16.80;;
7108;SDS011;29079;41.930;25.558;2023-02-15T14:42:34;33.42;;;17.90;;
7108;SDS011;29079;41.930;25.558;2023-02-15T14:45:17;25.45;;;15.48;;
7108;SDS011;29079;41.930;25.558;2023-02-15T14:47:59;35.20;;;18.42;;
7108;SDS011;29079;41.930;25.558;2023-02-15T14:50:43;32.38;;;17.75;;
7108;SDS011;29079;41.930;25.558;2023-02-15T14:53:23;31.35;;;17.42;;
7108;SDS011;29079;41.930;25.558;2023-02-15T14:56:17;31.27;;;17.90;;
7108;SDS011;29079;41.930;25.558;2023-02-15T14:58:56;29.38;;;17.15;;
7108;SDS011;29079;41.930;25.558;2023-02-15T15:01:32;33.47;;;19.27;;
7108;SDS011;29079;41.930;25.558;2023-02-15T15:04:09;32.75;;;17.17;;
7108;SDS011;29079;41.930;25.558;2023-02-15T15:06:54;41.05;;;21.15;;
7108;SDS011;29079;41.930;25.558;2023-02-15T15:09:33;44.53;;;21.88;;
7108;SDS011;29079;41.930;25.558;2023-02-15T15:12:15;37.33;;;21.85;;
7108;SDS011;29079;41.930;25.558;2023-02-15T15:15:12;44.50;;;24.88;;
7108;SDS011;29079;41.930;25.558;2023-02-15T15:17:53;50.08;;;25.77;;
7108;SDS011;29079;41.930;25.558;2023-02-15T15:20:42;55.80;;;25.70;;
7108;SDS011;29079;41.930;25.558;2023-02-15T15:23:39;40.10;;;19.70;;
7108;SDS011;29079;41.930;25.558;2023-02-15T15:26:25;39.30;;;21.10;;
7108;SDS011;29079;41.930;25.558;2023-02-15T15:29:00;39.75;;;20.70;;
7108;SDS011;29079;41.930;25.558;2023-02-15T15:31:43;37.10;;;20.70;;
7108;SDS011;29079;41.930;25.558;2023-02-15T15:37:46;52.28;;;27.33;;
7108;SDS011;29079;41.930;25.558;2023-02-15T15:49:40;46.33;;;24.42;;
7108;SDS011;29079;41.930;25.558;2023-02-15T15:52:14;43.75;;;24.00;;
7108;SDS011;29079;41.930;25.558;2023-02-15T15:54:51;44.78;;;23.88;;
7108;SDS011;29079;41.930;25.558;2023-02-15T15:57:28;43.63;;;24.02;;
7108;SDS011;29079;41.930;25.558;2023-02-15T16:00:20;41.92;;;22.90;;
7108;SDS011;29079;41.930;25.558;2023-02-15T16:03:05;39.88;;;21.40;;
7108;SDS011;29079;41.930;25.558;2023-02-15T16:05:40;44.90;;;23.05;;
7108;SDS011;29079;41.930;25.558;2023-02-15T16:08:13;48.80;;;24.45;;
7108;SDS011;29079;41.930;25.558;2023-02-15T16:10:59;55.35;;;26.15;;
7108;SDS011;29079;41.930;25.558;2023-02-15T16:13:35;55.08;;;27.27;;
7108;SDS011;29079;41.930;25.558;2023-02-15T16:16:11;65.20;;;31.10;;
7108;SDS011;29079;41.930;25.558;2023-02-15T16:18:45;54.28;;;30.65;;
7108;SDS011;29079;41.930;25.558;2023-02-15T16:21:20;59.65;;;30.67;;
7108;SDS011;29079;41.930;25.558;2023-02-15T16:24:09;62.58;;;31.35;;
7108;SDS011;29079;41.930;25.558;2023-02-15T16:30:23;80.00;;;39.63;;
7108;SDS011;29079;41.930;25.558;2023-02-15T16:33:06;106.22;;;46.30;;
7108;SDS011;29079;41.930;25.558;2023-02-15T16:35:41;108.65;;;54.22;;
7108;SDS011;29079;41.930;25.558;2023-02-15T16:38:31;124.35;;;57.90;;
7108;SDS011;29079;41.930;25.558;2023-02-15T16:41:39;102.55;;;49.72;;